createdAt,value
2018-04-26T00:01:02.153Z,100205.76
2018-04-26T00:03:29.819Z,100210.50
2018-04-26T00:05:57.502Z,100209.26
2018-04-26T00:08:25.068Z,100209.25
2018-04-26T00:10:54.426Z,100207.11
2018-04-26T00:13:22.873Z,100202.86
2018-04-26T00:15:50.455Z,100212.22
2018-04-26T00:18:18.016Z,100206.27
2018-04-26T00:20:45.604Z,100202.84
2018-04-26T00:23:13.179Z,100195.22
2018-04-26T00:25:40.725Z,100191.94
2018-04-26T00:28:08.524Z,100191.16
2018-04-26T00:30:36.077Z,100189.91
2018-04-26T00:33:03.634Z,100196.65
2018-04-26T00:35:31.538Z,100186.90
2018-04-26T00:37:59.138Z,100185.25
2018-04-26T00:40:27.036Z,100191.19
2018-04-26T00:42:54.832Z,100191.66
2018-04-26T00:45:22.506Z,100183.19
2018-04-26T00:47:50.210Z,100184.45
2018-04-26T00:50:17.775Z,100185.23
2018-04-26T00:52:45.548Z,100179.72
2018-04-26T00:55:13.308Z,100188.23
2018-04-26T00:57:40.905Z,100181.33
2018-04-26T01:00:08.476Z,100183.02
2018-04-26T01:02:36.110Z,100186.84
2018-04-26T01:05:03.673Z,100181.67
2018-04-26T01:07:31.236Z,100181.64
2018-04-26T01:09:58.773Z,100176.45
2018-04-26T01:12:26.333Z,100178.95
2018-04-26T01:14:53.917Z,100171.67
2018-04-26T01:17:21.478Z,100175.45
2018-04-26T01:19:49.068Z,100171.58
2018-04-26T01:22:16.868Z,100175.37
2018-04-26T01:24:44.451Z,100173.63
2018-04-26T01:27:12.007Z,100173.98
2018-04-26T01:29:39.594Z,100170.59
2018-04-26T01:32:07.175Z,100170.59
2018-04-26T01:34:34.755Z,100167.97
2018-04-26T01:37:14.064Z,100172.63
2018-04-26T01:39:41.604Z,100167.05
2018-04-26T01:42:09.198Z,100168.20
2018-04-26T01:44:36.771Z,100166.39
2018-04-26T01:47:04.329Z,100171.41
2018-04-26T01:49:31.886Z,100163.25
2018-04-26T01:51:59.490Z,100166.56
2018-04-26T01:54:27.216Z,100167.79
2018-04-26T01:56:54.852Z,100169.51
2018-04-26T01:59:22.618Z,100172.44
2018-04-26T02:01:50.177Z,100170.78
2018-04-26T02:04:17.729Z,100171.17
2018-04-26T02:06:45.299Z,100181.34
2018-04-26T02:09:12.868Z,100172.41
2018-04-26T02:11:40.475Z,100175.78
2018-04-26T02:14:08.056Z,100171.05
2018-04-26T02:16:35.635Z,100170.97
2018-04-26T02:19:03.219Z,100168.02
2018-04-26T02:21:30.811Z,100171.40
2018-04-26T02:23:58.366Z,100171.80
2018-04-26T02:26:25.948Z,100173.47
2018-04-26T02:28:53.509Z,100176.45
2018-04-26T02:31:21.071Z,100176.45
2018-04-26T02:33:48.638Z,100172.64
2018-04-26T02:36:16.254Z,100172.66
2018-04-26T02:38:43.817Z,100168.79
2018-04-26T02:41:11.376Z,100168.78
2018-04-26T02:43:38.929Z,100167.55
2018-04-26T02:46:06.512Z,100166.36
2018-04-26T02:48:34.049Z,100162.91
2018-04-26T02:51:01.606Z,100164.64
2018-04-26T02:53:29.158Z,100168.46
2018-04-26T02:55:56.743Z,100169.73
2018-04-26T02:58:24.391Z,100164.59
2018-04-26T03:00:51.974Z,100165.38
2018-04-26T03:03:19.532Z,100169.61
2018-04-26T03:05:47.125Z,100167.84
2018-04-26T03:08:14.764Z,100170.30
2018-04-26T03:10:42.277Z,100165.24
2018-04-26T03:13:09.839Z,100158.35
2018-04-26T03:15:37.406Z,100164.23
2018-04-26T03:18:04.989Z,100160.41
2018-04-26T03:20:32.553Z,100159.20
2018-04-26T03:23:00.145Z,100160.77
2018-04-26T03:25:27.705Z,100165.90
2018-04-26T03:27:55.267Z,100157.77
2018-04-26T03:30:22.818Z,100165.86
2018-04-26T03:32:50.383Z,100167.16
2018-04-26T03:35:18.111Z,100162.46
2018-04-26T03:37:45.669Z,100160.36
2018-04-26T03:40:13.244Z,100155.74
2018-04-26T03:42:40.799Z,100154.59
2018-04-26T03:45:08.378Z,100153.69
2018-04-26T03:47:35.977Z,100158.02
2018-04-26T03:50:03.738Z,100160.57
2018-04-26T03:52:31.332Z,100157.20
2018-04-26T03:54:58.986Z,100164.03
2018-04-26T03:57:26.617Z,100158.16
2018-04-26T04:00:05.961Z,100157.73
2018-04-26T04:02:45.319Z,100160.80
2018-04-26T04:08:17.410Z,100157.09
2018-04-26T04:10:44.984Z,100158.36
2018-04-26T04:13:12.522Z,100160.61
2018-04-26T04:15:40.119Z,100163.53
2018-04-26T04:18:07.681Z,100158.11
2018-04-26T04:20:35.262Z,100164.43
2018-04-26T04:23:02.793Z,100155.89
2018-04-26T04:25:31.144Z,100160.98
2018-04-26T04:27:58.708Z,100160.12
2018-04-26T04:30:26.275Z,100165.97
2018-04-26T04:32:53.852Z,100168.96
2018-04-26T04:35:21.499Z,100173.58
2018-04-26T04:37:49.011Z,100178.28
2018-04-26T04:40:16.622Z,100168.02
2018-04-26T04:42:44.165Z,100172.25
2018-04-26T04:45:11.750Z,100173.45
2018-04-26T04:47:39.330Z,100176.84
2018-04-26T04:50:06.903Z,100177.25
2018-04-26T04:52:34.561Z,100179.70
2018-04-26T04:55:02.139Z,100178.73
2018-04-26T04:57:29.673Z,100181.72
2018-04-26T04:59:57.201Z,100185.08
2018-04-26T05:02:24.758Z,100181.16
2018-04-26T05:04:52.320Z,100182.06
2018-04-26T05:07:19.949Z,100184.58
2018-04-26T05:09:47.442Z,100190.09
2018-04-26T05:12:15.067Z,100189.75
2018-04-26T05:14:42.627Z,100196.53
2018-04-26T05:17:10.180Z,100187.20
2018-04-26T05:19:37.757Z,100204.75
2018-04-26T05:22:05.338Z,100206.45
2018-04-26T05:24:32.924Z,100202.48
2018-04-26T05:27:00.490Z,100210.12
2018-04-26T05:29:28.050Z,100211.36
2018-04-26T05:31:55.649Z,100211.81
2018-04-26T05:34:23.207Z,100218.59
2018-04-26T05:36:50.901Z,100219.68
2018-04-26T05:39:18.464Z,100223.24
2018-04-26T05:41:46.019Z,100222.86
2018-04-26T05:44:13.592Z,100225.83
2018-04-26T05:46:41.235Z,100222.83
2018-04-26T05:49:08.806Z,100230.95
2018-04-26T05:51:36.379Z,100227.71
2018-04-26T05:54:03.930Z,100227.72
2018-04-26T05:56:31.504Z,100233.66
2018-04-26T05:58:59.070Z,100233.54
2018-04-26T06:01:26.922Z,100236.16
2018-04-26T06:03:54.548Z,100242.17
2018-04-26T06:06:22.065Z,100251.65
2018-04-26T06:08:49.650Z,100254.55
2018-04-26T06:11:17.248Z,100261.50
2018-04-26T06:13:44.825Z,100257.34
2018-04-26T06:16:12.387Z,100266.31
2018-04-26T06:18:40.047Z,100266.81
2018-04-26T06:21:07.817Z,100266.85
2018-04-26T06:23:35.392Z,100267.18
2018-04-26T06:26:02.937Z,100280.92
2018-04-26T06:28:30.482Z,100277.94
2018-04-26T06:30:58.048Z,100284.87
2018-04-26T06:33:25.798Z,100284.00
2018-04-26T06:35:53.356Z,100288.37
2018-04-26T06:38:20.915Z,100283.35
2018-04-26T06:40:48.486Z,100284.06
2018-04-26T06:43:16.225Z,100285.69
2018-04-26T06:45:43.776Z,100278.11
2018-04-26T06:48:11.381Z,100278.09
2018-04-26T06:50:38.914Z,100275.41
2018-04-26T06:53:06.478Z,100279.33
2018-04-26T06:55:34.044Z,100280.26
2018-04-26T06:58:01.596Z,100276.41
2018-04-26T07:00:29.367Z,100296.37
2018-04-26T07:02:57.057Z,100283.34
2018-04-26T07:05:24.594Z,100293.58
2018-04-26T07:07:52.135Z,100297.60
2018-04-26T07:10:19.684Z,100299.97
2018-04-26T07:12:47.216Z,100301.98
2018-04-26T07:15:14.756Z,100301.73
2018-04-26T07:17:42.368Z,100299.69
2018-04-26T07:20:09.931Z,100310.31
2018-04-26T07:25:04.299Z,100307.45
2018-04-26T07:27:31.845Z,100313.87
2018-04-26T07:29:59.423Z,100312.14
2018-04-26T07:32:26.981Z,100315.42
2018-04-26T07:34:54.580Z,100320.88
2018-04-26T07:37:22.132Z,100322.97
2018-04-26T07:39:49.694Z,100319.92
2018-04-26T07:42:17.326Z,100321.48
2018-04-26T07:44:44.912Z,100326.48
2018-04-26T07:47:12.485Z,100327.59
2018-04-26T07:49:40.052Z,100332.50
2018-04-26T07:52:07.581Z,100327.30
2018-04-26T07:54:36.212Z,100322.52
2018-04-26T07:57:03.772Z,100329.30
2018-04-26T07:59:31.345Z,100331.36
2018-04-26T08:01:58.899Z,100334.31
2018-04-26T08:04:26.445Z,100336.23
2018-04-26T08:06:54.003Z,100328.69
2018-04-26T08:09:21.563Z,100332.88
2018-04-26T08:11:49.211Z,100334.95
2018-04-26T08:14:16.717Z,100343.45
2018-04-26T08:16:44.276Z,100340.16
2018-04-26T08:19:11.851Z,100337.42
2018-04-26T08:21:39.760Z,100349.73
2018-04-26T08:24:07.535Z,100339.73
2018-04-26T08:26:35.100Z,100348.38
2018-04-26T08:29:02.642Z,100361.12
2018-04-26T08:31:30.218Z,100360.70
2018-04-26T08:33:57.752Z,100359.21
2018-04-26T08:36:25.329Z,100350.01
2018-04-26T08:38:52.887Z,100355.09
2018-04-26T08:41:20.463Z,100361.43
2018-04-26T08:43:48.088Z,100368.69
2018-04-26T08:46:15.638Z,100365.34
2018-04-26T08:48:43.170Z,100370.48
2018-04-26T08:51:10.738Z,100371.03
2018-04-26T08:53:38.288Z,100373.55
2018-04-26T08:56:05.852Z,100381.38
2018-04-26T08:58:33.417Z,100374.28
2018-04-26T09:01:00.971Z,100375.66
2018-04-26T09:03:28.660Z,100368.44
2018-04-26T09:05:56.259Z,100387.74
2018-04-26T09:08:23.820Z,100385.24
2018-04-26T09:10:51.388Z,100383.61
2018-04-26T09:13:19.080Z,100386.00
2018-04-26T09:15:46.701Z,100377.53
2018-04-26T09:18:14.571Z,100381.38
2018-04-26T09:20:42.155Z,100377.39
2018-04-26T09:23:09.721Z,100380.39
2018-04-26T09:25:37.274Z,100378.34
2018-04-26T09:28:05.058Z,100380.11
2018-04-26T09:30:32.661Z,100381.92
2018-04-26T09:33:00.308Z,100388.55
2018-04-26T09:35:27.876Z,100401.41
2018-04-26T09:37:55.452Z,100428.20
2018-04-26T09:40:22.989Z,100439.46
2018-04-26T09:42:50.529Z,100433.12
2018-04-26T09:45:18.096Z,100436.31
2018-04-26T09:47:45.959Z,100430.95
2018-04-26T09:50:13.690Z,100426.13
2018-04-26T09:52:41.265Z,100425.68
2018-04-26T09:55:08.807Z,100431.16
2018-04-26T09:57:36.556Z,100430.27
2018-04-26T10:00:04.125Z,100424.97
2018-04-26T10:02:31.690Z,100424.99
2018-04-26T10:04:59.236Z,100422.67
2018-04-26T10:07:26.842Z,100424.31
2018-04-26T10:09:54.397Z,100429.86
2018-04-26T10:12:21.927Z,100427.65
2018-04-26T10:14:49.469Z,100435.17
2018-04-26T10:17:17.030Z,100429.94
2018-04-26T10:19:44.566Z,100432.33
2018-04-26T10:22:12.090Z,100435.33
2018-04-26T10:24:39.644Z,100442.48
2018-04-26T10:27:07.450Z,100436.86
2018-04-26T10:29:34.995Z,100444.79
2018-04-26T10:32:02.561Z,100449.75
2018-04-26T10:34:30.130Z,100445.05
2018-04-26T10:36:57.691Z,100454.63
2018-04-26T10:39:25.273Z,100453.78
2018-04-26T10:41:52.827Z,100466.48
2018-04-26T10:44:20.390Z,100475.72
2018-04-26T10:46:47.967Z,100482.66
2018-04-26T10:49:15.511Z,100491.83
2018-04-26T10:51:43.063Z,100490.95
2018-04-26T10:54:10.605Z,100491.56
2018-04-26T10:56:38.167Z,100487.41
2018-04-26T10:59:05.714Z,100490.75
2018-04-26T11:01:33.278Z,100481.76
2018-04-26T11:04:00.934Z,100487.81
2018-04-26T11:06:28.498Z,100486.92
2018-04-26T11:08:56.129Z,100489.88
2018-04-26T11:11:23.835Z,100480.55
2018-04-26T11:13:51.401Z,100477.37
2018-04-26T11:16:18.995Z,100468.04
2018-04-26T11:18:46.545Z,100466.77
2018-04-26T11:21:14.145Z,100464.28
2018-04-26T11:23:41.665Z,100467.70
2018-04-26T11:26:09.232Z,100459.02
2018-04-26T11:28:36.796Z,100461.00
2018-04-26T11:31:04.558Z,100457.08
2018-04-26T11:33:32.086Z,100469.33
2018-04-26T11:35:59.948Z,100471.14
2018-04-26T11:38:27.538Z,100470.11
2018-04-26T11:40:55.080Z,100470.76
2018-04-26T11:43:22.618Z,100463.13
2018-04-26T11:45:50.349Z,100456.16
2018-04-26T11:48:18.046Z,100454.83
2018-04-26T11:50:45.645Z,100461.39
2018-04-26T11:53:13.226Z,100456.38
2018-04-26T11:55:40.796Z,100456.72
2018-04-26T11:58:08.392Z,100457.31
2018-04-26T12:00:36.067Z,100445.30
2018-04-26T12:03:03.649Z,100448.02
2018-04-26T12:05:31.219Z,100453.72
2018-04-26T12:07:58.775Z,100452.95
2018-04-26T12:10:26.317Z,100451.69
2018-04-26T12:12:53.865Z,100454.83
2018-04-26T12:15:21.400Z,100455.22
2018-04-26T12:17:49.016Z,100449.25
2018-04-26T12:20:16.954Z,100453.41
2018-04-26T12:22:44.508Z,100456.52
2018-04-26T12:25:12.244Z,100459.42
2018-04-26T12:27:39.958Z,100467.17
2018-04-26T12:30:07.512Z,100464.83
2018-04-26T12:32:35.237Z,100465.02
2018-04-26T12:35:02.809Z,100471.66
2018-04-26T12:37:30.456Z,100462.42
2018-04-26T12:39:58.051Z,100461.19
2018-04-26T12:42:25.723Z,100464.98
2018-04-26T12:44:53.231Z,100463.72
2018-04-26T12:47:20.775Z,100463.67
2018-04-26T12:49:48.592Z,100491.05
2018-04-26T12:52:16.148Z,100530.17
2018-04-26T12:54:43.705Z,100506.19
2018-04-26T12:57:11.264Z,100519.40
2018-04-26T12:59:38.802Z,100511.49
2018-04-26T13:02:06.364Z,100502.57
2018-04-26T13:04:34.117Z,100497.83
2018-04-26T13:07:01.681Z,100507.19
2018-04-26T13:09:29.794Z,100517.28
2018-04-26T13:11:57.716Z,100508.23
2018-04-26T13:14:25.645Z,100510.96
2018-04-26T13:16:53.719Z,100510.12
2018-04-26T13:19:21.505Z,100505.81
2018-04-26T13:21:49.064Z,100504.14
2018-04-26T13:24:16.634Z,100511.76
2018-04-26T13:26:44.405Z,100527.81
2018-04-26T13:29:12.027Z,100529.91
2018-04-26T13:31:39.583Z,100531.39
2018-04-26T13:34:07.147Z,100526.84
2018-04-26T13:36:34.697Z,100525.89
2018-04-26T13:39:02.237Z,100512.91
2018-04-26T13:41:29.787Z,100510.75
2018-04-26T13:43:57.371Z,100511.84
2018-04-26T13:46:24.966Z,100506.13
2018-04-26T13:48:52.490Z,100497.84
2018-04-26T13:51:20.027Z,100502.31
2018-04-26T13:53:47.578Z,100504.63
2018-04-26T13:56:15.185Z,100506.30
2018-04-26T13:58:42.789Z,100497.85
2018-04-26T14:01:10.322Z,100501.11
2018-04-26T14:03:37.855Z,100500.19
2018-04-26T14:06:05.644Z,100496.08
2018-04-26T14:08:33.177Z,100495.86
2018-04-26T14:11:00.864Z,100492.73
2018-04-26T14:13:28.602Z,100500.99
2018-04-26T14:15:56.156Z,100498.92
2018-04-26T14:18:23.889Z,100498.59
2018-04-26T14:20:51.442Z,100501.25
2018-04-26T14:23:19.064Z,100496.81
2018-04-26T14:25:46.589Z,100491.67
2018-04-26T14:28:14.260Z,100493.20
2018-04-26T14:30:41.847Z,100506.34
2018-04-26T14:33:09.412Z,100506.09
2018-04-26T14:35:37.000Z,100512.47
2018-04-26T14:38:04.548Z,100497.59
2018-04-26T14:40:32.087Z,100505.97
2018-04-26T14:42:59.683Z,100504.12
2018-04-26T14:45:27.279Z,100521.00
2018-04-26T14:47:54.834Z,100551.75
2018-04-26T14:50:22.375Z,100551.17
2018-04-26T14:52:49.923Z,100549.42
2018-04-26T14:55:17.477Z,100555.66
2018-04-26T14:57:45.069Z,100556.89
2018-04-26T15:00:12.633Z,100555.31
2018-04-26T15:02:40.209Z,100559.41
2018-04-26T15:05:07.780Z,100569.07
2018-04-26T15:07:35.347Z,100570.80
2018-04-26T15:10:02.935Z,100568.38
2018-04-26T15:12:30.536Z,100558.36
2018-04-26T15:14:58.155Z,100564.65
2018-04-26T15:17:25.714Z,100565.47
2018-04-26T15:19:53.351Z,100562.34
2018-04-26T15:22:20.895Z,100562.58
2018-04-26T15:24:48.454Z,100558.08
2018-04-26T15:27:15.990Z,100560.11
2018-04-26T15:29:43.538Z,100560.45
2018-04-26T15:32:11.098Z,100558.41
2018-04-26T15:34:38.638Z,100552.33
2018-04-26T15:37:06.213Z,100554.61
2018-04-26T15:39:33.772Z,100546.89
2018-04-26T15:42:01.305Z,100556.31
2018-04-26T15:44:28.865Z,100550.97
2018-04-26T15:46:56.418Z,100560.92
2018-04-26T15:49:23.982Z,100552.41
2018-04-26T15:51:51.590Z,100560.13
2018-04-26T15:54:30.815Z,100554.88
2018-04-26T15:57:06.334Z,100565.50
2018-04-26T15:59:45.577Z,100574.23
2018-04-26T16:05:41.947Z,100588.45
2018-04-26T16:08:27.041Z,100582.33
2018-04-26T16:11:11.916Z,100582.70
2018-04-26T16:17:25.401Z,100569.22
2018-04-26T16:20:10.265Z,100565.23
2018-04-26T16:26:07.128Z,100568.76
2018-04-26T16:28:52.154Z,100560.81
2018-04-26T16:34:52.060Z,100558.27
2018-04-26T16:37:37.364Z,100557.20
2018-04-26T16:40:05.707Z,100553.23
2018-04-26T16:42:34.021Z,100555.66
2018-04-26T16:45:01.578Z,100561.88
2018-04-26T16:47:29.129Z,100566.50
2018-04-26T16:49:56.689Z,100570.58
2018-04-26T16:52:24.246Z,100580.32
2018-04-26T16:54:51.820Z,100577.41
2018-04-26T16:57:19.710Z,100576.63
2018-04-26T16:59:47.268Z,100582.12
2018-04-26T17:02:14.838Z,100578.55
2018-04-26T17:04:42.444Z,100579.80
2018-04-26T17:07:10.024Z,100582.05
2018-04-26T17:09:37.746Z,100585.63
2018-04-26T17:12:10.633Z,100585.03
2018-04-26T17:14:38.171Z,100591.08
2018-04-26T17:17:05.928Z,100592.66
2018-04-26T17:19:33.744Z,100588.11
2018-04-26T17:22:01.301Z,100597.27
2018-04-26T17:24:28.865Z,100602.75
2018-04-26T17:26:56.443Z,100598.09
2018-04-26T17:29:24.007Z,100597.55
2018-04-26T17:31:51.598Z,100600.73
2018-04-26T17:34:19.204Z,100599.87
2018-04-26T17:36:46.763Z,100602.80
2018-04-26T17:39:14.315Z,100599.50
2018-04-26T17:41:41.877Z,100598.64
2018-04-26T17:44:09.447Z,100599.02
2018-04-26T17:46:37.001Z,100604.52
2018-04-26T17:49:04.550Z,100599.50
2018-04-26T17:51:32.117Z,100608.39
2018-04-26T17:53:59.673Z,100605.91
2018-04-26T17:56:27.228Z,100608.34
2018-04-26T17:58:54.761Z,100609.25
2018-04-26T18:01:22.316Z,100609.64
2018-04-26T18:03:49.893Z,100613.91
2018-04-26T18:06:17.462Z,100612.33
2018-04-26T18:08:45.257Z,100615.76
2018-04-26T18:11:13.266Z,100610.43
2018-04-26T18:13:40.824Z,100616.77
2018-04-26T18:16:08.377Z,100620.26
2018-04-26T18:18:35.923Z,100632.25
2018-04-26T18:21:03.466Z,100635.69
2018-04-26T18:23:31.231Z,100644.34
2018-04-26T18:25:59.026Z,100640.93
2018-04-26T18:28:26.579Z,100647.94
2018-04-26T18:30:54.793Z,100646.77
2018-04-26T18:33:22.358Z,100652.83
2018-04-26T18:35:49.967Z,100657.17
2018-04-26T18:38:17.549Z,100668.48
2018-04-26T18:40:45.168Z,100668.94
2018-04-26T18:43:12.736Z,100670.66
2018-04-26T18:45:40.305Z,100676.68
2018-04-26T18:48:07.847Z,100672.91
2018-04-26T18:50:36.230Z,100683.20
2018-04-26T18:53:03.798Z,100682.33
2018-04-26T18:55:31.348Z,100683.16
2018-04-26T18:57:58.912Z,100685.44
2018-04-26T19:00:26.710Z,100682.46
2018-04-26T19:02:54.339Z,100681.35
2018-04-26T19:05:21.924Z,100688.20
2018-04-26T19:07:49.504Z,100678.50
2018-04-26T19:10:17.065Z,100690.03
2018-04-26T19:12:44.634Z,100688.34
2018-04-26T19:15:12.196Z,100689.19
2018-04-26T19:17:39.761Z,100689.31
2018-04-26T19:20:07.321Z,100691.86
2018-04-26T19:22:34.901Z,100697.83
2018-04-26T19:25:02.484Z,100695.88
2018-04-26T19:27:30.672Z,100692.38
2018-04-26T19:29:58.441Z,100697.53
2018-04-26T19:32:25.993Z,100698.05
2018-04-26T19:34:53.549Z,100703.16
2018-04-26T19:37:21.112Z,100702.34
2018-04-26T19:39:48.665Z,100706.20
2018-04-26T19:42:16.231Z,100710.66
2018-04-26T19:44:43.791Z,100708.06
2018-04-26T19:47:11.367Z,100708.55
2018-04-26T19:49:38.956Z,100712.91
2018-04-26T19:52:06.501Z,100718.03
2018-04-26T19:54:34.071Z,100720.56
2018-04-26T19:57:01.624Z,100727.52
2018-04-26T19:59:29.242Z,100722.41
2018-04-26T20:01:56.821Z,100726.22
2018-04-26T20:04:24.398Z,100726.70
2018-04-26T20:06:51.953Z,100727.12
2018-04-26T20:09:19.505Z,100728.00
2018-04-26T20:11:47.035Z,100731.42
2018-04-26T20:14:14.569Z,100733.95
2018-04-26T20:16:42.128Z,100729.23
2018-04-26T20:19:09.689Z,100738.17
2018-04-26T20:21:39.099Z,100734.38
2018-04-26T20:24:07.529Z,100737.36
2018-04-26T20:26:36.726Z,100732.66
2018-04-26T20:29:05.046Z,100742.05
2018-04-26T20:31:32.690Z,100738.65
2018-04-26T20:34:00.912Z,100744.61
2018-04-26T20:36:28.540Z,100736.95
2018-04-26T20:38:58.321Z,100731.42
2018-04-26T20:41:26.027Z,100726.34
2018-04-26T20:43:56.543Z,100726.36
2018-04-26T20:46:24.357Z,100729.69
2018-04-26T20:48:52.634Z,100739.92
2018-04-26T20:51:22.371Z,100735.63
2018-04-26T20:53:49.952Z,100728.45
2018-04-26T20:56:17.507Z,100739.91
2018-04-26T20:58:46.255Z,100733.55
2018-04-26T21:01:14.695Z,100720.77
2018-04-26T21:03:42.401Z,100726.77
2018-04-26T21:06:10.178Z,100724.66
2018-04-26T21:08:38.130Z,100723.78
2018-04-26T21:11:08.482Z,100719.55
2018-04-26T21:13:36.240Z,100726.30
2018-04-26T21:16:04.320Z,100719.55
2018-04-26T21:18:32.188Z,100725.08
2018-04-26T21:20:59.968Z,100721.27
2018-04-26T21:23:29.048Z,100725.98
2018-04-26T21:26:00.630Z,100729.81
2018-04-26T21:28:28.855Z,100723.02
2018-04-26T21:30:56.556Z,100731.61
2018-04-26T21:33:24.588Z,100723.09
2018-04-26T21:35:52.786Z,100726.08
2018-04-26T21:38:23.550Z,100725.28
2018-04-26T21:40:52.415Z,100727.04
2018-04-26T21:43:21.419Z,100726.60
2018-04-26T21:45:53.082Z,100726.22
2018-04-26T21:48:22.065Z,100727.94
2018-04-26T21:50:58.248Z,100721.98
2018-04-26T21:53:33.211Z,100727.08
2018-04-26T21:56:07.011Z,100725.02
2018-04-26T21:58:42.157Z,100724.56
2018-04-26T22:01:17.089Z,100730.55
2018-04-26T22:04:02.846Z,100733.11
2018-04-26T22:06:30.574Z,100728.45
2018-04-26T22:08:59.175Z,100727.59
2018-04-26T22:11:27.349Z,100734.83
2018-04-26T22:13:55.117Z,100725.08
2018-04-26T22:16:22.826Z,100728.05
2018-04-26T22:18:50.677Z,100727.22
2018-04-26T22:21:18.715Z,100721.69
2018-04-26T22:23:47.149Z,100722.55
2018-04-26T22:26:15.483Z,100730.62
2018-04-26T22:28:43.247Z,100726.38
2018-04-26T22:31:10.952Z,100732.36
2018-04-26T22:33:39.079Z,100726.83
2018-04-26T22:36:06.861Z,100728.97
2018-04-26T22:38:34.707Z,100724.29
2018-04-26T22:41:03.000Z,100728.52
2018-04-26T22:43:30.969Z,100726.83
2018-04-26T22:45:58.904Z,100730.23
2018-04-26T22:48:27.112Z,100728.11
2018-04-26T22:50:55.076Z,100728.95
2018-04-26T22:53:22.953Z,100728.11
2018-04-26T22:55:51.123Z,100731.08
2018-04-26T22:58:19.604Z,100729.83
2018-04-26T23:00:47.629Z,100735.34
2018-04-26T23:03:15.271Z,100736.19
2018-04-26T23:05:43.101Z,100737.47
2018-04-26T23:08:10.865Z,100731.11
2018-04-26T23:10:38.742Z,100733.66
2018-04-26T23:13:06.462Z,100735.77
2018-04-26T23:15:34.203Z,100737.48
2018-04-26T23:18:02.230Z,100731.94
2018-04-26T23:20:29.990Z,100734.09
2018-04-26T23:22:57.604Z,100735.34
2018-04-26T23:25:25.421Z,100731.09
2018-04-26T23:27:53.340Z,100736.20
2018-04-26T23:30:21.303Z,100734.05
2018-04-26T23:32:49.436Z,100740.84
2018-04-26T23:35:17.293Z,100744.25
2018-04-26T23:37:44.905Z,100740.44
2018-04-26T23:40:12.529Z,100738.31
2018-04-26T23:42:40.140Z,100736.17
2018-04-26T23:45:07.951Z,100737.02
2018-04-26T23:47:35.715Z,100735.73
2018-04-26T23:50:03.459Z,100740.42
2018-04-26T23:52:31.151Z,100740.83
2018-04-26T23:54:58.786Z,100741.24
2018-04-26T23:57:26.588Z,100747.17
2018-04-26T23:59:54.246Z,100755.67
